Time;durP1;ratioP1;P1;durP2;ratioP2;P2;SDS_P1;SDS_P2;PMS_P1;PMS_P2;Temp;Humidity;BMP_temperature;BMP_pressure;BME280_temperature;BME280_humidity;BME280_pressure;Samples;Min_cycle;Max_cycle;Signal;HPM_P1;HPM_P2
2021/05/17 00:02:07;;;;;;;0.43;0.27;;;;;;;8.70;84.27;95091.16;5052531;28;20136;-78
2021/05/17 00:04:34;;;;;;;1.00;0.30;;;;;;;8.70;84.43;95093.78;5059246;28;20103;-78
2021/05/17 00:07:05;;;;;;;4.03;0.53;;;;;;;8.69;84.29;95090.34;5055926;28;20025;-78
2021/05/17 00:09:32;;;;;;;1.27;0.30;;;;;;;8.75;83.86;95091.44;5063661;28;20048;-78
2021/05/17 00:11:59;;;;;;;1.20;0.33;;;;;;;8.75;84.01;95086.19;5066412;28;20406;-78
2021/05/17 00:14:27;;;;;;;0.83;0.40;;;;;;;8.74;84.23;95093.25;5083147;28;20379;-78
2021/05/17 00:16:53;;;;;;;2.47;0.47;;;;;;;8.76;83.94;95085.22;5059649;28;20029;-78
2021/05/17 00:19:19;;;;;;;1.17;0.30;;;;;;;8.69;84.18;95084.31;5059988;28;20532;-78
2021/05/17 00:21:46;;;;;;;1.50;0.60;;;;;;;8.62;84.36;95086.81;5062063;28;20115;-81
2021/05/17 00:24:13;;;;;;;0.97;0.40;;;;;;;8.57;84.32;95091.75;5086517;28;20028;-81
2021/05/17 00:26:39;;;;;;;0.43;0.30;;;;;;;8.53;84.28;95089.66;5041806;28;20062;-78
2021/05/17 00:29:09;;;;;;;3.67;0.50;;;;;;;8.56;84.33;95095.38;5065166;28;20599;-78
2021/05/17 00:31:39;;;;;;;2.17;1.13;;;;;;;8.50;84.09;95091.63;5042689;28;20033;-79
2021/05/17 00:34:07;;;;;;;0.33;0.20;;;;;;;8.48;84.27;95092.78;5067715;28;20033;-78
2021/05/17 00:36:34;;;;;;;0.50;0.20;;;;;;;8.45;84.29;95104.44;5063944;28;20411;-79
2021/05/17 00:39:04;;;;;;;0.20;0.20;;;;;;;8.56;84.07;95100.59;5061726;28;20024;-80
2021/05/17 00:41:29;;;;;;;0.80;0.30;;;;;;;8.55;84.18;95091.13;5071263;28;20024;-79
2021/05/17 00:43:56;;;;;;;1.80;0.20;;;;;;;8.58;83.81;95093.38;5067179;28;20035;-78
2021/05/17 00:46:24;;;;;;;1.10;0.40;;;;;;;8.57;83.68;95085.69;5070957;28;20032;-78
2021/05/17 00:48:50;;;;;;;1.53;0.80;;;;;;;8.58;83.60;95095.16;5059263;28;20036;-78
2021/05/17 00:51:17;;;;;;;1.90;0.50;;;;;;;8.54;83.62;95092.09;5084024;28;20543;-78
2021/05/17 00:53:43;;;;;;;2.23;0.40;;;;;;;8.52;83.58;95094.09;5063287;28;20025;-78
2021/05/17 00:56:10;;;;;;;1.93;0.50;;;;;;;8.55;83.27;95092.91;5068124;28;20055;-78
2021/05/17 00:58:40;;;;;;;4.70;0.70;;;;;;;8.49;83.87;95092.63;5058362;28;20033;-78
2021/05/17 01:01:07;;;;;;;1.23;0.43;;;;;;;8.55;83.61;95093.75;5059346;28;20033;-78
2021/05/17 01:03:34;;;;;;;2.20;0.50;;;;;;;8.50;83.82;95102.09;5062043;28;20013;-78
2021/05/17 01:06:31;;;;;;;0.67;0.30;;;;;;;8.50;83.24;95101.28;5056886;28;20059;-78
2021/05/17 01:09:00;;;;;;;2.07;0.40;;;;;;;8.47;83.14;95102.44;5066493;28;20021;-78
2021/05/17 01:11:29;;;;;;;0.37;0.20;;;;;;;8.48;83.42;95104.09;5071929;28;20115;-78
2021/05/17 01:13:59;;;;;;;1.07;0.50;;;;;;;8.53;82.85;95102.75;5054037;28;20112;-79
2021/05/17 01:16:26;;;;;;;2.50;0.40;;;;;;;8.51;82.79;95105.53;5054012;28;20033;-78
2021/05/17 01:18:52;;;;;;;2.17;0.50;;;;;;;8.48;82.82;95108.50;5053265;28;20021;-78
2021/05/17 01:21:23;;;;;;;1.33;0.43;;;;;;;8.56;83.08;95113.72;5066653;28;20033;-76
2021/05/17 01:23:55;;;;;;;3.53;0.60;;;;;;;8.60;82.68;95116.78;5070782;28;20021;-78
2021/05/17 01:26:31;;;;;;;2.97;0.22;;;;;;;8.58;82.57;95121.38;5046052;28;20052;-79
2021/05/17 01:29:02;;;;;;;0.87;0.33;;;;;;;8.59;82.69;95121.22;5063483;28;20036;-78
2021/05/17 01:31:29;;;;;;;2.20;0.30;;;;;;;8.57;82.26;95117.94;5054408;28;20036;-77
2021/05/17 01:33:55;;;;;;;2.13;0.53;;;;;;;8.62;82.41;95120.06;5037908;28;20062;-78
2021/05/17 01:36:23;;;;;;;2.73;0.50;;;;;;;8.57;82.16;95117.13;5044806;28;20094;-81
2021/05/17 01:38:52;;;;;;;3.23;0.50;;;;;;;8.59;81.87;95120.41;5062311;28;20025;-77
2021/05/17 01:41:24;;;;;;;0.83;0.40;;;;;;;8.59;81.72;95115.97;5054610;28;20024;-77
2021/05/17 01:43:55;;;;;;;2.03;0.43;;;;;;;8.55;82.04;95114.69;5057337;28;20024;-78
2021/05/17 01:46:23;;;;;;;2.23;0.40;;;;;;;8.65;81.00;95104.81;5058604;28;20056;-77
2021/05/17 01:48:56;;;;;;;3.40;0.50;;;;;;;8.61;81.72;95108.75;5059156;28;20029;-78
2021/05/17 01:51:23;;;;;;;6.57;0.40;;;;;;;8.63;81.78;95117.25;5064213;28;20025;-77
2021/05/17 01:53:50;;;;;;;1.07;0.30;;;;;;;8.63;81.56;95112.00;5054985;28;20029;-80
2021/05/17 01:56:18;;;;;;;2.10;0.40;;;;;;;8.63;81.16;95105.97;5069235;28;20670;-79
2021/05/17 01:58:45;;;;;;;4.43;0.70;;;;;;;8.59;81.31;95110.75;5050124;28;20033;-78
2021/05/17 02:01:16;;;;;;;1.40;0.40;;;;;;;8.64;80.97;95112.81;5061888;28;20508;-77
2021/05/17 02:03:44;;;;;;;1.20;0.40;;;;;;;8.68;80.69;95114.91;5061636;28;20016;-78
2021/05/17 02:06:12;;;;;;;2.37;0.50;;;;;;;8.70;81.10;95112.94;5056132;28;20013;-79
2021/05/17 02:08:44;;;;;;;0.33;0.30;;;;;;;8.65;81.26;95125.78;5055976;28;20036;-78
2021/05/17 02:11:12;;;;;;;0.40;0.30;;;;;;;8.66;80.99;95122.16;5039227;28;20033;-81
2021/05/17 02:13:40;;;;;;;1.27;0.37;;;;;;;8.63;81.45;95124.31;5047085;28;20028;-78
2021/05/17 02:16:08;;;;;;;0.77;0.27;;;;;;;8.66;80.70;95122.16;5057221;28;20053;-78
2021/05/17 02:18:38;;;;;;;3.20;0.50;;;;;;;8.68;80.69;95114.91;5059964;28;20017;-78
2021/05/17 02:21:06;;;;;;;1.90;0.30;;;;;;;8.66;83.21;95130.00;5058177;28;20029;-79
2021/05/17 02:23:32;;;;;;;1.83;0.53;;;;;;;8.63;83.48;95126.94;5047158;28;20024;-79
2021/05/17 02:26:00;;;;;;;2.83;0.40;;;;;;;8.50;83.54;95127.50;5056941;28;20029;-78
2021/05/17 02:28:26;;;;;;;1.70;0.37;;;;;;;8.51;84.52;95126.50;5062501;28;20079;-78
2021/05/17 02:30:52;;;;;;;1.60;0.70;;;;;;;8.49;85.40;95129.31;5062155;28;20044;-79
2021/05/17 02:33:18;;;;;;;7.10;0.70;;;;;;;8.46;85.56;95136.69;5052481;28;20021;-81
2021/05/17 02:35:46;;;;;;;1.77;0.53;;;;;;;8.43;84.67;95132.63;5064016;28;20457;-79
2021/05/17 02:38:14;;;;;;;2.77;0.43;;;;;;;8.38;85.18;95134.91;5066924;28;20108;-78
2021/05/17 02:40:45;;;;;;;1.67;0.40;;;;;;;8.36;85.01;95129.03;5053563;28;20043;-79
2021/05/17 02:43:12;;;;;;;1.90;0.40;;;;;;;8.34;84.69;95127.56;5065381;28;20033;-78
2021/05/17 02:45:51;;;;;;;3.73;0.50;;;;;;;8.37;85.19;95133.25;5070001;28;20039;-78
2021/05/17 02:48:27;;;;;;;2.23;0.40;;;;;;;8.40;84.90;95129.53;5077631;28;20029;-77
2021/05/17 02:50:52;;;;;;;3.45;0.43;;;;;;;8.34;84.88;95132.78;5063835;28;20226;-80
2021/05/17 02:53:35;;;;;;;3.27;0.53;;;;;;;8.30;84.35;95142.00;5062757;28;20025;-78
2021/05/17 02:56:12;;;;;;;1.30;0.30;;;;;;;8.28;84.97;95139.53;5057071;28;20037;-78
2021/05/17 02:58:45;;;;;;;4.17;0.40;;;;;;;8.33;84.69;95142.47;5061067;28;20024;-80
2021/05/17 03:01:16;;;;;;;1.80;0.50;;;;;;;8.30;84.17;95142.00;5055329;28;20040;-78
2021/05/17 03:03:57;;;;;;;2.03;0.40;;;;;;;8.34;84.55;95149.31;5056121;28;20114;-80
2021/05/17 03:06:33;;;;;;;0.60;0.40;;;;;;;8.42;83.89;95138.03;5057303;28;20064;-79
2021/05/17 03:09:06;;;;;;;0.97;0.23;;;;;;;8.31;84.33;95141.00;5062471;28;20044;-78
2021/05/17 03:11:42;;;;;;;1.60;0.37;;;;;;;8.30;84.13;95149.84;5072229;28;20032;-79
2021/05/17 03:14:09;;;;;;;0.20;0.20;;;;;;;8.35;83.88;95148.34;5065776;28;20036;-78
2021/05/17 03:16:37;;;;;;;1.77;0.47;;;;;;;8.34;83.72;95148.50;5040450;28;20497;-77
2021/05/17 03:19:04;;;;;;;1.47;0.40;;;;;;;8.33;83.40;95152.13;5071076;28;20029;-78
2021/05/17 03:21:32;;;;;;;2.57;0.40;;;;;;;8.38;82.21;95160.31;5053119;28;20600;-79
2021/05/17 03:23:58;;;;;;;1.83;0.30;;;;;;;8.35;82.35;95160.63;5054441;28;20041;-78
2021/05/17 03:26:26;;;;;;;1.60;0.30;;;;;;;8.40;82.35;95158.34;5078400;28;20033;-78
2021/05/17 03:28:52;;;;;;;1.77;0.50;;;;;;;8.33;83.07;95167.84;5061837;28;20082;-78
2021/05/17 03:31:18;;;;;;;2.40;0.27;;;;;;;8.24;84.35;95178.34;5064430;28;20031;-78
2021/05/17 03:33:44;;;;;;;4.70;0.50;;;;;;;8.13;85.40;95173.50;5047659;28;20053;-78
2021/05/17 03:36:10;;;;;;;1.73;0.23;;;;;;;8.08;85.49;95174.97;5048380;28;20096;-78
2021/05/17 03:38:38;;;;;;;1.50;0.40;;;;;;;7.99;86.19;95176.81;5064643;28;20104;-78
2021/05/17 03:41:03;;;;;;;0.60;0.30;;;;;;;8.02;85.29;95173.88;5060535;28;20845;-78
2021/05/17 03:43:29;;;;;;;0.77;0.43;;;;;;;8.02;85.50;95179.09;5065345;28;20053;-78
2021/05/17 03:45:55;;;;;;;2.23;0.50;;;;;;;8.07;84.92;95178.59;5065571;28;20378;-78
2021/05/17 03:48:20;;;;;;;0.93;0.30;;;;;;;8.05;84.91;95181.41;5065939;28;20580;-78
2021/05/17 03:50:46;;;;;;;2.47;0.30;;;;;;;8.04;84.48;95182.34;5067914;28;20054;-78
2021/05/17 03:53:12;;;;;;;1.23;0.30;;;;;;;8.06;86.09;95180.41;5070274;28;20036;-78
2021/05/17 03:55:37;;;;;;;4.67;0.47;;;;;;;8.07;85.09;95186.44;5066424;28;20052;-78
2021/05/17 03:58:03;;;;;;;1.60;0.30;;;;;;;8.01;83.88;95186.16;5055200;28;20025;-78
2021/05/17 04:00:31;;;;;;;1.17;0.30;;;;;;;8.06;84.56;95190.88;5065037;28;20034;-78
2021/05/17 04:02:58;;;;;;;2.60;0.30;;;;;;;8.06;84.51;95185.63;5064754;28;20504;-78
2021/05/17 04:05:45;;;;;;;1.47;0.47;;;;;;;8.15;83.30;95182.00;5069534;28;20063;-79
2021/05/17 04:13:53;;;;;;;3.38;0.80;;;;;;;8.19;83.45;95179.88;5012898;28;20080;-79
2021/05/17 04:16:18;;;;;;;0.27;0.13;;;;;;;8.21;82.17;95188.34;5024944;28;20503;-80
2021/05/17 04:18:46;;;;;;;0.50;0.40;;;;;;;8.30;83.10;95189.94;5050875;28;20025;-78
2021/05/17 04:21:12;;;;;;;2.93;0.70;;;;;;;8.22;81.85;95188.19;5047917;28;20564;-77
2021/05/17 04:23:38;;;;;;;0.87;0.20;;;;;;;8.38;82.24;95191.75;5054813;28;20481;-78
2021/05/17 04:26:04;;;;;;;1.27;0.13;;;;;;;8.39;81.59;95204.69;5062720;28;20024;-78
2021/05/17 04:28:30;;;;;;;1.00;0.20;;;;;;;8.38;82.17;95197.78;5060535;28;20303;-81
2021/05/17 04:30:56;;;;;;;1.17;0.30;;;;;;;8.48;82.83;95198.44;5060205;28;20033;-79
2021/05/17 04:33:23;;;;;;;0.60;0.30;;;;;;;8.41;82.37;95199.25;5074164;28;20513;-78
2021/05/17 04:35:49;;;;;;;0.33;0.17;;;;;;;8.46;83.36;95205.63;5045883;28;20020;-79
2021/05/17 04:38:15;;;;;;;3.17;0.30;;;;;;;8.36;83.12;95201.56;5069507;28;20044;-77
2021/05/17 04:40:43;;;;;;;2.13;0.30;;;;;;;8.25;83.51;95203.56;5071394;28;20109;-78
2021/05/17 04:43:09;;;;;;;0.70;0.40;;;;;;;8.39;83.68;95207.31;5069015;28;20032;-78
2021/05/17 04:45:34;;;;;;;2.43;0.70;;;;;;;8.43;83.86;95210.41;5064654;28;20032;-78
2021/05/17 04:48:00;;;;;;;2.40;0.60;;;;;;;8.45;83.26;95209.25;5074023;28;20095;-78
2021/05/17 04:50:26;;;;;;;0.70;0.37;;;;;;;8.52;83.93;95206.75;5055958;28;20029;-78
2021/05/17 04:52:51;;;;;;;1.73;0.73;;;;;;;8.62;84.24;95209.16;5061902;28;20174;-79
2021/05/17 04:55:17;;;;;;;1.50;0.60;;;;;;;8.57;84.63;95222.78;5065096;28;20032;-79
2021/05/17 04:57:43;;;;;;;2.37;0.43;;;;;;;8.61;85.10;95210.94;5066652;28;20032;-80
2021/05/17 05:00:10;;;;;;;2.00;0.57;;;;;;;8.56;84.89;95221.16;5055331;28;20610;-81
2021/05/17 05:02:37;;;;;;;3.57;1.40;;;;;;;8.52;85.84;95224.25;5067597;28;20035;-79
2021/05/17 05:05:03;;;;;;;1.13;0.40;;;;;;;8.46;85.22;95221.34;5067470;28;20528;-79
2021/05/17 05:07:29;;;;;;;4.57;0.80;;;;;;;8.53;85.65;95226.72;5067316;28;20037;-80
2021/05/17 05:09:55;;;;;;;2.20;0.43;;;;;;;8.47;86.15;95222.16;5071115;28;20085;-80
2021/05/17 05:12:20;;;;;;;2.63;0.50;;;;;;;8.60;85.80;95226.84;5049498;28;20113;-78
2021/05/17 05:14:46;;;;;;;3.90;0.70;;;;;;;8.60;85.54;95234.72;5049110;28;20084;-81
2021/05/17 05:17:12;;;;;;;1.83;0.60;;;;;;;8.54;84.71;95233.59;5053644;28;20457;-78
2021/05/17 05:19:37;;;;;;;1.23;0.50;;;;;;;8.61;84.93;95239.78;5053276;28;20029;-77
2021/05/17 05:22:03;;;;;;;1.70;0.50;;;;;;;8.61;84.86;95237.16;5058358;28;20563;-78
2021/05/17 05:24:29;;;;;;;2.53;1.20;;;;;;;8.69;84.41;95231.06;5040266;28;20040;-78
2021/05/17 05:29:54;;;;;;;2.37;0.33;;;;;;;8.73;83.09;95243.66;5067000;28;20092;-77
2021/05/17 05:32:32;;;;;;;1.47;0.43;;;;;;;9.04;83.35;95232.31;5068492;28;20025;-78
2021/05/17 05:34:58;;;;;;;1.63;0.30;;;;;;;9.28;81.61;95231.34;5070192;28;20032;-77
2021/05/17 05:37:24;;;;;;;4.83;1.23;;;;;;;9.30;81.33;95234.59;5073778;28;20039;-79
2021/05/17 05:39:50;;;;;;;9.17;4.07;;;;;;;9.38;81.29;95228.47;5070026;28;20151;-78
2021/05/17 05:42:15;;;;;;;1.00;0.60;;;;;;;9.24;80.58;95230.06;5058968;28;20090;-78
2021/05/17 05:44:46;;;;;;;1.60;0.40;;;;;;;9.30;80.86;95246.91;5069899;28;20028;-78
2021/05/17 05:47:16;;;;;;;3.50;1.40;;;;;;;9.33;80.66;95243.94;5067472;28;20122;-78
2021/05/17 05:49:47;;;;;;;3.87;1.17;;;;;;;9.32;79.54;95247.53;5065255;28;20538;-78
2021/05/17 05:52:15;;;;;;;4.30;1.17;;;;;;;9.35;79.11;95236.69;5060893;28;20036;-78
2021/05/17 05:54:41;;;;;;;3.97;1.00;;;;;;;9.38;78.14;95241.59;5062759;28;20028;-78
2021/05/17 05:57:08;;;;;;;2.23;0.50;;;;;;;9.39;78.00;95243.25;5069595;28;20401;-78
2021/05/17 05:59:34;;;;;;;1.67;0.50;;;;;;;9.36;76.64;95238.34;5061971;28;20123;-79
2021/05/17 06:02:00;;;;;;;1.63;0.40;;;;;;;9.19;77.54;95254.19;5063049;28;20033;-78
2021/05/17 06:04:26;;;;;;;1.33;0.50;;;;;;;9.17;77.77;95255.34;5065078;28;20035;-77
2021/05/17 06:06:52;;;;;;;0.93;0.40;;;;;;;9.29;76.83;95258.38;5064149;28;20033;-78
2021/05/17 06:09:17;;;;;;;1.57;0.40;;;;;;;9.52;77.09;95253.94;5045870;28;20025;-77
2021/05/17 06:11:59;;;;;;;1.83;0.20;;;;;;;9.64;76.20;95263.03;5073372;28;20062;-78
2021/05/17 06:14:25;;;;;;;1.53;0.27;;;;;;;9.66;74.94;95247.94;5053357;28;20037;-77
2021/05/17 06:16:50;;;;;;;2.40;0.40;;;;;;;9.80;74.87;95264.72;5059715;28;20070;-77
2021/05/17 06:19:16;;;;;;;1.93;0.57;;;;;;;9.98;75.08;95268.81;5061408;28;20068;-80
2021/05/17 06:21:42;;;;;;;1.20;0.30;;;;;;;10.21;74.31;95266.13;5054772;28;20092;-78
2021/05/17 06:24:11;;;;;;;1.70;0.40;;;;;;;10.82;72.19;95266.72;5065130;28;20024;-78
2021/05/17 06:26:38;;;;;;;4.33;0.53;;;;;;;11.49;69.18;95263.78;5057628;28;20075;-77
2021/05/17 06:29:05;;;;;;;1.23;0.40;;;;;;;11.27;68.92;95264.81;5059557;28;20044;-79
2021/05/17 06:31:30;;;;;;;1.60;0.30;;;;;;;10.73;69.10;95276.56;5046977;28;20031;-79
2021/05/17 06:33:56;;;;;;;3.20;0.97;;;;;;;10.61;70.23;95275.38;5076716;28;20040;-78
2021/05/17 06:36:22;;;;;;;3.40;0.40;;;;;;;10.52;71.40;95281.72;5053184;28;20036;-78
2021/05/17 06:38:49;;;;;;;1.87;0.40;;;;;;;10.54;70.89;95283.19;5062612;28;20082;-79
2021/05/17 06:41:15;;;;;;;2.23;0.60;;;;;;;10.60;70.26;95282.47;5055277;28;20021;-80
2021/05/17 06:43:41;;;;;;;4.93;0.40;;;;;;;10.88;70.55;95276.53;5060840;28;20387;-79
2021/05/17 06:46:09;;;;;;;1.33;0.23;;;;;;;10.80;69.12;95282.72;5063079;28;20032;-77
2021/05/17 06:48:45;;;;;;;3.97;1.77;;;;;;;10.88;68.88;95284.41;5065583;28;20576;-78
2021/05/17 06:51:16;;;;;;;2.90;0.30;;;;;;;10.87;67.91;95284.59;5073136;28;20074;-78
2021/05/17 06:53:43;;;;;;;0.60;0.33;;;;;;;10.79;68.29;95285.50;5040514;28;20043;-78
2021/05/17 06:56:38;;;;;;;2.53;0.40;;;;;;;10.50;69.24;95292.44;5076361;28;20029;-79
2021/05/17 06:59:00;;;;;;;1.00;0.27;;;;;;;10.42;69.86;95289.88;5053438;28;20025;-79
2021/05/17 07:01:28;;;;;;;1.00;0.20;;;;;;;10.70;69.13;95294.50;5061753;28;20029;-78
2021/05/17 07:03:57;;;;;;;2.10;0.30;;;;;;;10.80;69.94;95289.78;5059620;28;20021;-79
2021/05/17 07:06:27;;;;;;;0.67;0.30;;;;;;;10.46;69.16;95304.31;5051537;28;20183;-79
2021/05/17 07:14:13;;;;;;;1.65;0.70;;;;;;;10.01;70.70;95310.47;5065539;28;20040;-79
2021/05/17 07:16:40;;;;;;;1.80;0.30;;;;;;;10.09;71.03;95311.22;5057120;28;20723;-79
2021/05/17 07:19:05;;;;;;;1.00;0.40;;;;;;;10.01;70.11;95319.16;5055219;28;20029;-79
2021/05/17 07:24:20;;;;;;;1.80;0.30;;;;;;;10.06;71.10;95323.88;5079135;28;20020;-79
2021/05/17 07:26:46;;;;;;;2.30;0.30;;;;;;;9.99;71.36;95318.53;5060665;28;20032;-79
2021/05/17 07:29:12;;;;;;;1.17;0.40;;;;;;;9.87;71.89;95322.59;5052606;28;20039;-79
2021/05/17 07:31:37;;;;;;;0.90;0.40;;;;;;;9.79;71.83;95331.34;5058770;28;20074;-79
2021/05/17 07:34:03;;;;;;;3.17;0.60;;;;;;;9.81;73.45;95331.16;5061003;28;20025;-79
2021/05/17 07:36:29;;;;;;;2.00;0.50;;;;;;;9.91;74.07;95334.34;5066090;28;20021;-79
2021/05/17 07:38:55;;;;;;;0.90;0.20;;;;;;;9.94;74.08;95333.19;5047683;28;20032;-79
2021/05/17 07:41:20;;;;;;;1.57;0.37;;;;;;;9.91;74.91;95335.16;5050053;28;20028;-79
2021/05/17 07:43:47;;;;;;;2.17;0.60;;;;;;;9.85;75.50;95343.75;5069170;28;20076;-79
2021/05/17 07:46:13;;;;;;;4.10;0.30;;;;;;;10.10;75.83;95340.94;5055319;28;20053;-79
2021/05/17 07:51:25;;;;;;;1.47;0.20;;;;;;;10.13;79.24;95348.47;5070606;28;20066;-79
2021/05/17 07:53:52;;;;;;;2.93;0.73;;;;;;;10.02;79.66;95349.69;5056249;28;20032;-79
2021/05/17 07:56:18;;;;;;;1.60;0.37;;;;;;;10.21;79.29;95358.06;5058926;28;20029;-79
2021/05/17 07:58:44;;;;;;;1.47;0.30;;;;;;;10.30;79.99;95362.31;5051503;28;20058;-79
2021/05/17 08:01:12;;;;;;;2.53;0.30;;;;;;;10.37;79.46;95363.22;5061327;28;20035;-80
2021/05/17 08:03:38;;;;;;;0.30;0.30;;;;;;;10.22;78.91;95363.13;5058235;28;20044;-79
2021/05/17 08:06:04;;;;;;;1.13;0.40;;;;;;;10.27;80.09;95352.16;5049459;28;20391;-79
2021/05/17 08:08:35;;;;;;;3.77;0.50;;;;;;;10.24;77.70;95357.72;5064796;28;20032;-81
2021/05/17 08:11:04;;;;;;;0.90;0.30;;;;;;;10.26;77.08;95361.00;5071050;28;20052;-79
2021/05/17 08:13:30;;;;;;;2.13;0.40;;;;;;;10.62;76.69;95361.13;5055976;28;20020;-79
2021/05/17 08:15:56;;;;;;;0.60;0.30;;;;;;;10.66;75.12;95364.22;5059290;28;20048;-79
2021/05/17 08:18:22;;;;;;;2.33;0.40;;;;;;;11.13;73.98;95352.50;5057327;28;20025;-79
2021/05/17 08:20:48;;;;;;;2.43;0.40;;;;;;;11.58;72.28;95356.66;5060223;28;20516;-79
2021/05/17 08:23:18;;;;;;;1.70;0.80;;;;;;;11.68;74.19;95353.72;5058334;28;20020;-79
2021/05/17 08:25:45;;;;;;;1.03;0.40;;;;;;;11.48;75.86;95362.22;5068937;28;20040;-79
2021/05/17 08:28:12;;;;;;;1.40;0.10;;;;;;;11.36;75.50;95371.59;5062087;28;20051;-79
2021/05/17 08:30:45;;;;;;;2.70;0.40;;;;;;;11.24;74.72;95365.19;5049170;28;20036;-79
2021/05/17 08:33:12;;;;;;;0.97;0.40;;;;;;;11.53;74.00;95372.19;5059727;28;20037;-79
2021/05/17 08:35:38;;;;;;;1.57;0.57;;;;;;;11.47;73.05;95367.69;5067198;28;20497;-79
2021/05/17 08:38:05;;;;;;;5.90;0.80;;;;;;;11.65;73.66;95368.06;5064439;28;20501;-80
2021/05/17 08:40:35;;;;;;;2.10;0.30;;;;;;;11.67;71.30;95368.72;5081458;28;20063;-79
2021/05/17 08:43:02;;;;;;;3.03;0.30;;;;;;;11.32;71.75;95365.88;5064411;28;20540;-78
2021/05/17 08:45:28;;;;;;;2.10;0.43;;;;;;;12.24;71.99;95367.03;5054435;28;20035;-79
2021/05/17 08:47:54;;;;;;;0.20;0.20;;;;;;;13.01;68.15;95363.47;5068730;28;20544;-79
2021/05/17 08:50:20;;;;;;;1.63;0.40;;;;;;;12.94;66.10;95362.59;5061703;28;20375;-79
2021/05/17 08:52:46;;;;;;;3.83;0.60;;;;;;;12.82;67.34;95370.25;5052503;28;20039;-79
2021/05/17 08:55:12;;;;;;;0.63;0.30;;;;;;;12.88;65.58;95363.41;5065215;28;20028;-79
2021/05/17 08:57:42;;;;;;;1.43;0.47;;;;;;;12.88;65.63;95356.28;5063532;28;20063;-79
2021/05/17 09:00:08;;;;;;;4.33;0.80;;;;;;;12.28;64.77;95355.09;5057028;28;20025;-78
2021/05/17 09:02:34;;;;;;;3.17;0.50;;;;;;;12.85;62.96;95361.16;5062029;28;20166;-79
2021/05/17 09:05:18;;;;;;;2.37;0.60;;;;;;;13.11;63.60;95356.00;5055681;28;20548;-79
2021/05/17 09:07:46;;;;;;;3.30;0.70;;;;;;;13.44;61.25;95355.34;5059599;28;20893;-79
2021/05/17 09:10:42;;;;;;;2.10;0.40;;;;;;;13.59;61.13;95360.47;5071490;28;20612;-79
2021/05/17 09:13:15;;;;;;;2.30;0.87;;;;;;;14.14;58.27;95358.50;5052028;28;20020;-80
2021/05/17 09:15:52;;;;;;;2.00;0.63;;;;;;;13.58;60.14;95358.81;5063885;28;20037;-79
2021/05/17 09:18:27;;;;;;;1.20;0.47;;;;;;;13.18;60.01;95354.22;5068463;28;20029;-79
2021/05/17 09:20:55;;;;;;;1.70;0.30;;;;;;;13.20;61.12;95356.63;5069197;28;20039;-80
2021/05/17 09:23:32;;;;;;;2.70;0.50;;;;;;;13.22;59.68;95359.91;5069510;28;20028;-79
2021/05/17 09:26:07;;;;;;;5.23;0.73;;;;;;;14.39;57.12;95353.44;5058471;28;20704;-79
2021/05/17 09:28:36;;;;;;;1.97;0.47;;;;;;;13.92;60.05;95349.97;5067897;28;20595;-79
2021/05/17 09:31:07;;;;;;;3.80;0.57;;;;;;;13.90;58.29;95352.81;5062556;28;20393;-78
2021/05/17 09:33:41;;;;;;;3.40;0.43;;;;;;;13.49;58.89;95360.03;5057584;28;20029;-80
2021/05/17 09:36:21;;;;;;;1.67;0.40;;;;;;;13.28;60.09;95363.59;5052322;28;20375;-79
2021/05/17 09:39:15;;;;;;;3.50;0.60;;;;;;;12.77;63.23;95364.75;5080870;28;20036;-79
2021/05/17 09:41:46;;;;;;;2.10;0.70;;;;;;;12.43;64.94;95360.25;5055950;28;20119;-79
2021/05/17 09:44:14;;;;;;;3.83;0.70;;;;;;;12.33;65.81;95360.59;5049541;28;20021;-79
2021/05/17 09:47:02;;;;;;;0.87;0.47;;;;;;;13.33;63.90;95356.72;5058665;28;20025;-79
2021/05/17 09:49:37;;;;;;;2.03;0.50;;;;;;;13.22;64.07;95365.19;5041012;28;20482;-80
2021/05/17 09:52:27;;;;;;;1.57;0.40;;;;;;;13.10;62.88;95361.47;5060417;28;20058;-81
2021/05/17 09:55:03;;;;;;;5.77;0.70;;;;;;;13.07;63.23;95369.78;5051402;28;20084;-79
2021/05/17 09:57:40;;;;;;;5.33;0.80;;;;;;;13.38;63.57;95364.03;5061851;28;20177;-80
2021/05/17 10:00:11;;;;;;;3.93;0.63;;;;;;;13.36;63.34;95361.63;5049529;28;20033;-79
2021/05/17 10:02:42;;;;;;;1.40;0.53;;;;;;;12.74;61.41;95358.06;5060469;28;20182;-80
2021/05/17 10:05:13;;;;;;;2.90;0.80;;;;;;;13.69;59.70;95358.25;5056343;28;20031;-79
2021/05/17 10:07:40;;;;;;;3.57;0.70;;;;;;;15.48;53.97;95344.00;5042054;28;20039;-81
2021/05/17 10:10:07;;;;;;;3.97;1.43;;;;;;;15.02;54.85;95350.28;5054894;28;20039;-79
2021/05/17 10:12:33;;;;;;;1.20;0.50;;;;;;;16.34;52.72;95337.38;5066003;28;20028;-79
2021/05/17 10:15:00;;;;;;;3.83;0.60;;;;;;;16.50;50.07;95334.97;5041858;28;20108;-79
2021/05/17 10:17:25;;;;;;;2.70;0.67;;;;;;;16.37;49.78;95331.63;5058029;28;20044;-81
2021/05/17 10:19:52;;;;;;;2.97;0.73;;;;;;;15.09;52.87;95340.53;5050488;28;20038;-80
2021/05/17 10:22:17;;;;;;;2.67;0.47;;;;;;;14.55;55.53;95333.69;5045416;28;20100;-79
2021/05/17 10:24:44;;;;;;;0.93;0.40;;;;;;;14.99;54.21;95335.66;5050477;28;20060;-81
2021/05/17 10:27:10;;;;;;;1.97;0.50;;;;;;;15.72;53.37;95331.88;5035987;28;20033;-80
2021/05/17 10:29:38;;;;;;;3.73;0.87;;;;;;;16.32;51.21;95319.00;5036964;28;20513;-80
2021/05/17 10:32:07;;;;;;;2.10;0.40;;;;;;;15.06;53.45;95331.16;5061157;28;20135;-81
2021/05/17 10:35:08;;;;;;;4.63;0.60;;;;;;;14.66;52.96;95340.22;5060898;28;20024;-79
2021/05/17 10:37:37;;;;;;;1.20;0.50;;;;;;;14.17;54.60;95339.59;5069319;28;20443;-80
2021/05/17 10:40:05;;;;;;;4.73;2.17;;;;;;;13.57;58.33;95351.91;5061017;28;20024;-80
2021/05/17 10:42:55;;;;;;;11.13;4.93;;;;;;;13.53;59.03;95355.97;5067048;28;20448;-80
2021/05/17 10:48:27;;;;;;;3.10;1.60;;;;;;;13.52;60.34;95365.75;5082529;28;20039;-82
2021/05/17 10:51:08;;;;;;;0.87;0.20;;;;;;;13.28;63.48;95364.44;5066622;28;20058;-80
2021/05/17 10:53:59;;;;;;;1.43;0.43;;;;;;;13.49;61.14;95366.13;5061167;28;20033;-78
2021/05/17 11:02:12;;;;;;;0.83;0.43;;;;;;;12.78;60.37;95374.31;5084960;28;20040;-79
2021/05/17 11:04:41;;;;;;;0.50;0.20;;;;;;;12.50;62.92;95372.47;5062529;28;20058;-81
2021/05/17 11:07:13;;;;;;;0.30;0.17;;;;;;;12.78;65.34;95373.50;5047001;28;20040;-79
2021/05/17 11:09:49;;;;;;;1.43;0.20;;;;;;;13.71;66.88;95364.13;5055360;28;20114;-78
2021/05/17 11:12:25;;;;;;;1.53;0.40;;;;;;;13.77;60.95;95362.53;5058976;28;20036;-77
2021/05/17 11:15:06;;;;;;;2.50;0.63;;;;;;;14.19;59.87;95350.81;5059595;28;20029;-80
2021/05/17 11:17:51;;;;;;;2.10;0.53;;;;;;;15.25;58.30;95344.50;5053268;28;20458;-79
2021/05/17 11:20:40;;;;;;;1.53;0.20;;;;;;;15.20;54.68;95337.22;5047665;28;20032;-78
2021/05/17 11:23:06;;;;;;;0.30;0.20;;;;;;;15.26;54.05;95339.03;5069131;28;20544;-81
2021/05/17 11:25:51;;;;;;;2.73;0.50;;;;;;;15.49;52.99;95342.97;5074187;28;20024;-80
2021/05/17 11:28:35;;;;;;;1.60;0.50;;;;;;;15.55;53.55;95340.28;5055485;28;20131;-80
2021/05/17 11:31:12;;;;;;;1.03;0.50;;;;;;;15.50;51.52;95344.63;5047785;28;20037;-81
2021/05/17 11:33:54;;;;;;;7.90;5.03;;;;;;;15.70;51.69;95348.00;5062627;28;20062;-80
2021/05/17 11:36:24;;;;;;;16.03;8.57;;;;;;;15.82;51.70;95344.66;5061335;28;20114;-80
2021/05/17 11:39:13;;;;;;;7.73;3.23;;;;;;;16.54;49.07;95337.19;5058959;28;20095;-81
2021/05/17 11:41:49;;;;;;;4.03;1.00;;;;;;;15.47;51.19;95345.84;5057897;28;20033;-82
2021/05/17 11:44:22;;;;;;;3.70;1.20;;;;;;;14.20;54.38;95355.06;5063162;28;20032;-79
2021/05/17 11:46:50;;;;;;;7.47;0.82;;;;;;;13.37;63.87;95381.72;5073671;28;20040;-79
2021/05/17 11:49:23;;;;;;;2.93;0.77;;;;;;;11.98;69.39;95391.34;5050972;28;20418;-80
2021/05/17 11:51:57;;;;;;;3.88;1.00;;;;;;;11.55;73.85;95388.63;5045151;28;20032;-79
2021/05/17 11:54:28;;;;;;;3.20;0.90;;;;;;;11.49;74.29;95392.81;5061241;28;20414;-78
2021/05/17 11:56:58;;;;;;;1.43;0.40;;;;;;;11.81;73.64;95380.19;5054810;28;20040;-79
2021/05/17 11:59:28;;;;;;;4.50;0.83;;;;;;;11.95;73.44;95389.88;5061772;28;20110;-80
2021/05/17 12:02:00;;;;;;;2.23;0.50;;;;;;;11.97;75.07;95392.31;5048846;28;20025;-78
2021/05/17 12:04:35;;;;;;;3.22;0.70;;;;;;;12.62;73.85;95395.69;5062898;28;20036;-78
2021/05/17 12:07:09;;;;;;;2.07;0.77;;;;;;;12.31;73.89;95388.16;5059867;28;20047;-77
2021/05/17 12:09:42;;;;;;;3.80;1.10;;;;;;;12.65;72.32;95395.31;5044678;28;20039;-78
2021/05/17 12:12:18;;;;;;;2.75;0.63;;;;;;;12.77;75.05;95395.59;5063497;28;20409;-78
2021/05/17 12:14:49;;;;;;;0.70;0.37;;;;;;;14.25;70.72;95384.38;5068183;28;20045;-78
2021/05/17 12:17:16;;;;;;;2.90;0.70;;;;;;;13.88;71.39;95396.28;5064030;28;20032;-78
2021/05/17 12:19:59;;;;;;;1.63;0.80;;;;;;;13.57;72.83;95415.31;5061315;28;20440;-78